sensor_id;sensor_type;location;lat;lon;timestamp;P1;durP1;ratioP1;P2;durP2;ratioP2
3329;SDS011;1677;49.576;10.990;2022-12-29T00:02:16;3.57;;;2.50;;
3329;SDS011;1677;49.576;10.990;2022-12-29T00:04:42;2.30;;;1.90;;
3329;SDS011;1677;49.576;10.990;2022-12-29T00:07:08;3.33;;;2.27;;
3329;SDS011;1677;49.576;10.990;2022-12-29T00:09:35;3.17;;;1.75;;
3329;SDS011;1677;49.576;10.990;2022-12-29T00:12:01;1.80;;;1.70;;
3329;SDS011;1677;49.576;10.990;2022-12-29T00:14:28;2.35;;;2.05;;
3329;SDS011;1677;49.576;10.990;2022-12-29T00:17:12;3.17;;;2.05;;
3329;SDS011;1677;49.576;10.990;2022-12-29T00:19:38;3.40;;;2.07;;
3329;SDS011;1677;49.576;10.990;2022-12-29T00:22:23;2.45;;;2.05;;
3329;SDS011;1677;49.576;10.990;2022-12-29T00:25:08;11.63;;;2.50;;
3329;SDS011;1677;49.576;10.990;2022-12-29T00:27:54;2.17;;;1.92;;
3329;SDS011;1677;49.576;10.990;2022-12-29T00:30:37;5.68;;;2.75;;
3329;SDS011;1677;49.576;10.990;2022-12-29T00:33:25;2.30;;;2.10;;
3329;SDS011;1677;49.576;10.990;2022-12-29T00:36:18;2.17;;;1.98;;
3329;SDS011;1677;49.576;10.990;2022-12-29T00:38:46;2.55;;;2.05;;
3329;SDS011;1677;49.576;10.990;2022-12-29T00:41:34;3.70;;;1.85;;
3329;SDS011;1677;49.576;10.990;2022-12-29T00:44:18;3.67;;;2.10;;
3329;SDS011;1677;49.576;10.990;2022-12-29T00:46:44;2.00;;;1.90;;
3329;SDS011;1677;49.576;10.990;2022-12-29T00:49:10;3.07;;;1.73;;
3329;SDS011;1677;49.576;10.990;2022-12-29T00:51:56;2.08;;;1.60;;
3329;SDS011;1677;49.576;10.990;2022-12-29T00:54:25;1.70;;;1.60;;
3329;SDS011;1677;49.576;10.990;2022-12-29T00:56:51;2.35;;;1.60;;
3329;SDS011;1677;49.576;10.990;2022-12-29T00:59:17;2.30;;;1.75;;
3329;SDS011;1677;49.576;10.990;2022-12-29T01:01:44;2.72;;;1.90;;
3329;SDS011;1677;49.576;10.990;2022-12-29T01:04:10;3.28;;;2.20;;
3329;SDS011;1677;49.576;10.990;2022-12-29T01:06:37;2.55;;;2.35;;
3329;SDS011;1677;49.576;10.990;2022-12-29T01:09:04;2.08;;;1.65;;
3329;SDS011;1677;49.576;10.990;2022-12-29T01:11:49;3.15;;;2.30;;
3329;SDS011;1677;49.576;10.990;2022-12-29T01:14:15;2.25;;;1.52;;
3329;SDS011;1677;49.576;10.990;2022-12-29T01:16:41;2.42;;;1.80;;
3329;SDS011;1677;49.576;10.990;2022-12-29T01:19:07;2.10;;;1.90;;
3329;SDS011;1677;49.576;10.990;2022-12-29T01:21:32;2.77;;;2.33;;
3329;SDS011;1677;49.576;10.990;2022-12-29T01:23:58;2.73;;;1.87;;
3329;SDS011;1677;49.576;10.990;2022-12-29T01:26:23;3.53;;;1.97;;
3329;SDS011;1677;49.576;10.990;2022-12-29T01:28:49;2.30;;;2.10;;
3329;SDS011;1677;49.576;10.990;2022-12-29T01:31:15;7.13;;;2.40;;
3329;SDS011;1677;49.576;10.990;2022-12-29T01:33:41;3.90;;;1.90;;
3329;SDS011;1677;49.576;10.990;2022-12-29T01:36:08;2.20;;;2.03;;
3329;SDS011;1677;49.576;10.990;2022-12-29T01:38:39;4.05;;;2.20;;
3329;SDS011;1677;49.576;10.990;2022-12-29T01:41:05;3.97;;;1.83;;
3329;SDS011;1677;49.576;10.990;2022-12-29T01:46:20;2.90;;;1.73;;
3329;SDS011;1677;49.576;10.990;2022-12-29T01:48:48;6.93;;;1.85;;
3329;SDS011;1677;49.576;10.990;2022-12-29T01:51:17;2.17;;;1.98;;
3329;SDS011;1677;49.576;10.990;2022-12-29T01:53:44;2.50;;;1.77;;
3329;SDS011;1677;49.576;10.990;2022-12-29T01:56:10;1.98;;;1.77;;
3329;SDS011;1677;49.576;10.990;2022-12-29T01:58:39;4.28;;;2.20;;
3329;SDS011;1677;49.576;10.990;2022-12-29T02:01:10;2.25;;;1.88;;
3329;SDS011;1677;49.576;10.990;2022-12-29T02:03:36;2.40;;;1.98;;
3329;SDS011;1677;49.576;10.990;2022-12-29T02:06:03;1.88;;;1.77;;
3329;SDS011;1677;49.576;10.990;2022-12-29T02:08:40;2.25;;;1.90;;
3329;SDS011;1677;49.576;10.990;2022-12-29T02:11:06;3.13;;;2.00;;
3329;SDS011;1677;49.576;10.990;2022-12-29T02:13:32;2.35;;;1.73;;
3329;SDS011;1677;49.576;10.990;2022-12-29T02:18:37;2.40;;;1.83;;
3329;SDS011;1677;49.576;10.990;2022-12-29T02:33:13;2.22;;;2.03;;
3329;SDS011;1677;49.576;10.990;2022-12-29T02:39:15;2.40;;;1.70;;
3329;SDS011;1677;49.576;10.990;2022-12-29T02:42:01;2.08;;;1.30;;
3329;SDS011;1677;49.576;10.990;2022-12-29T02:49:56;2.30;;;1.73;;
3329;SDS011;1677;49.576;10.990;2022-12-29T02:52:28;1.85;;;1.70;;
3329;SDS011;1677;49.576;10.990;2022-12-29T02:54:58;2.08;;;1.75;;
3329;SDS011;1677;49.576;10.990;2022-12-29T02:59:52;2.20;;;1.48;;
3329;SDS011;1677;49.576;10.990;2022-12-29T03:05:41;2.30;;;1.83;;
3329;SDS011;1677;49.576;10.990;2022-12-29T03:13:44;2.08;;;1.88;;
3329;SDS011;1677;49.576;10.990;2022-12-29T03:16:40;4.45;;;2.38;;
3329;SDS011;1677;49.576;10.990;2022-12-29T03:19:20;2.05;;;1.83;;
3329;SDS011;1677;49.576;10.990;2022-12-29T03:22:17;2.30;;;2.05;;
3329;SDS011;1677;49.576;10.990;2022-12-29T03:24:53;3.05;;;1.75;;
3329;SDS011;1677;49.576;10.990;2022-12-29T03:27:22;3.05;;;1.95;;
3329;SDS011;1677;49.576;10.990;2022-12-29T03:30:04;2.92;;;2.20;;
3329;SDS011;1677;49.576;10.990;2022-12-29T03:32:33;2.20;;;1.70;;
3329;SDS011;1677;49.576;10.990;2022-12-29T03:35:02;2.80;;;2.05;;
3329;SDS011;1677;49.576;10.990;2022-12-29T03:37:31;1.95;;;1.60;;
3329;SDS011;1677;49.576;10.990;2022-12-29T03:40:04;2.30;;;1.90;;
3329;SDS011;1677;49.576;10.990;2022-12-29T03:42:32;2.00;;;1.90;;
3329;SDS011;1677;49.576;10.990;2022-12-29T03:45:00;6.25;;;2.42;;
3329;SDS011;1677;49.576;10.990;2022-12-29T03:47:26;2.13;;;1.93;;
3329;SDS011;1677;49.576;10.990;2022-12-29T03:49:52;2.77;;;2.00;;
3329;SDS011;1677;49.576;10.990;2022-12-29T03:52:17;2.35;;;1.90;;
3329;SDS011;1677;49.576;10.990;2022-12-29T03:54:43;2.60;;;1.80;;
3329;SDS011;1677;49.576;10.990;2022-12-29T03:57:10;2.20;;;1.70;;
3329;SDS011;1677;49.576;10.990;2022-12-29T03:59:36;2.33;;;1.83;;
3329;SDS011;1677;49.576;10.990;2022-12-29T04:02:01;3.60;;;2.10;;
3329;SDS011;1677;49.576;10.990;2022-12-29T04:04:27;2.20;;;1.50;;
3329;SDS011;1677;49.576;10.990;2022-12-29T04:06:53;4.10;;;2.40;;
3329;SDS011;1677;49.576;10.990;2022-12-29T04:09:18;5.13;;;2.00;;
3329;SDS011;1677;49.576;10.990;2022-12-29T04:11:44;2.73;;;1.70;;
3329;SDS011;1677;49.576;10.990;2022-12-29T04:14:09;1.83;;;1.63;;
3329;SDS011;1677;49.576;10.990;2022-12-29T04:16:35;4.10;;;2.40;;
3329;SDS011;1677;49.576;10.990;2022-12-29T04:19:03;3.08;;;2.25;;
3329;SDS011;1677;49.576;10.990;2022-12-29T04:21:29;7.45;;;2.67;;
3329;SDS011;1677;49.576;10.990;2022-12-29T04:23:55;5.53;;;2.60;;
3329;SDS011;1677;49.576;10.990;2022-12-29T04:26:20;2.97;;;2.00;;
3329;SDS011;1677;49.576;10.990;2022-12-29T04:28:46;2.30;;;2.10;;
3329;SDS011;1677;49.576;10.990;2022-12-29T04:31:11;2.30;;;1.93;;
3329;SDS011;1677;49.576;10.990;2022-12-29T04:33:37;2.63;;;2.23;;
3329;SDS011;1677;49.576;10.990;2022-12-29T04:36:03;5.73;;;2.43;;
3329;SDS011;1677;49.576;10.990;2022-12-29T04:38:28;5.83;;;1.70;;
3329;SDS011;1677;49.576;10.990;2022-12-29T04:40:54;2.27;;;1.60;;
3329;SDS011;1677;49.576;10.990;2022-12-29T04:43:20;2.30;;;1.90;;
3329;SDS011;1677;49.576;10.990;2022-12-29T04:45:46;1.50;;;1.40;;
3329;SDS011;1677;49.576;10.990;2022-12-29T04:48:12;4.50;;;2.13;;
3329;SDS011;1677;49.576;10.990;2022-12-29T04:50:39;3.72;;;2.33;;
3329;SDS011;1677;49.576;10.990;2022-12-29T04:53:05;10.75;;;2.33;;
3329;SDS011;1677;49.576;10.990;2022-12-29T04:55:31;2.10;;;1.63;;
3329;SDS011;1677;49.576;10.990;2022-12-29T04:57:57;2.43;;;1.50;;
3329;SDS011;1677;49.576;10.990;2022-12-29T05:00:23;2.27;;;1.60;;
3329;SDS011;1677;49.576;10.990;2022-12-29T05:02:49;3.23;;;2.23;;
3329;SDS011;1677;49.576;10.990;2022-12-29T05:05:14;2.93;;;2.20;;
3329;SDS011;1677;49.576;10.990;2022-12-29T05:07:40;3.17;;;1.63;;
3329;SDS011;1677;49.576;10.990;2022-12-29T05:10:06;2.70;;;2.30;;
3329;SDS011;1677;49.576;10.990;2022-12-29T05:12:32;1.45;;;1.35;;
3329;SDS011;1677;49.576;10.990;2022-12-29T05:14:59;4.20;;;1.85;;
3329;SDS011;1677;49.576;10.990;2022-12-29T05:17:25;2.93;;;1.83;;
3329;SDS011;1677;49.576;10.990;2022-12-29T05:19:51;2.92;;;1.85;;
3329;SDS011;1677;49.576;10.990;2022-12-29T05:22:16;3.50;;;2.10;;
3329;SDS011;1677;49.576;10.990;2022-12-29T05:24:42;2.00;;;1.80;;
3329;SDS011;1677;49.576;10.990;2022-12-29T05:27:08;2.60;;;1.90;;
3329;SDS011;1677;49.576;10.990;2022-12-29T05:29:33;7.03;;;2.30;;
3329;SDS011;1677;49.576;10.990;2022-12-29T05:31:59;5.93;;;2.30;;
3329;SDS011;1677;49.576;10.990;2022-12-29T05:34:24;1.93;;;1.73;;
3329;SDS011;1677;49.576;10.990;2022-12-29T05:36:50;2.27;;;2.00;;
3329;SDS011;1677;49.576;10.990;2022-12-29T05:39:16;2.10;;;1.80;;
3329;SDS011;1677;49.576;10.990;2022-12-29T05:41:41;2.70;;;1.83;;
3329;SDS011;1677;49.576;10.990;2022-12-29T05:44:07;2.77;;;2.57;;
3329;SDS011;1677;49.576;10.990;2022-12-29T05:46:32;3.13;;;2.30;;
3329;SDS011;1677;49.576;10.990;2022-12-29T05:48:58;5.90;;;2.27;;
3329;SDS011;1677;49.576;10.990;2022-12-29T05:51:24;5.90;;;2.10;;
3329;SDS011;1677;49.576;10.990;2022-12-29T05:53:49;2.83;;;2.13;;
3329;SDS011;1677;49.576;10.990;2022-12-29T05:56:15;2.50;;;2.30;;
3329;SDS011;1677;49.576;10.990;2022-12-29T05:58:41;3.50;;;1.70;;
3329;SDS011;1677;49.576;10.990;2022-12-29T06:01:06;4.20;;;2.00;;
3329;SDS011;1677;49.576;10.990;2022-12-29T06:03:32;1.87;;;1.60;;
3329;SDS011;1677;49.576;10.990;2022-12-29T06:05:57;5.23;;;2.57;;
3329;SDS011;1677;49.576;10.990;2022-12-29T06:08:23;2.23;;;2.00;;
3329;SDS011;1677;49.576;10.990;2022-12-29T06:10:49;2.20;;;1.83;;
3329;SDS011;1677;49.576;10.990;2022-12-29T06:13:14;5.67;;;2.07;;
3329;SDS011;1677;49.576;10.990;2022-12-29T06:15:40;2.47;;;1.87;;
3329;SDS011;1677;49.576;10.990;2022-12-29T06:18:06;3.20;;;2.03;;
3329;SDS011;1677;49.576;10.990;2022-12-29T06:20:31;2.90;;;2.20;;
3329;SDS011;1677;49.576;10.990;2022-12-29T06:22:57;3.33;;;1.77;;
3329;SDS011;1677;49.576;10.990;2022-12-29T06:25:23;1.90;;;1.70;;
3329;SDS011;1677;49.576;10.990;2022-12-29T06:27:48;3.73;;;2.57;;
3329;SDS011;1677;49.576;10.990;2022-12-29T06:30:14;2.77;;;1.80;;
3329;SDS011;1677;49.576;10.990;2022-12-29T06:32:39;3.50;;;3.17;;
3329;SDS011;1677;49.576;10.990;2022-12-29T06:35:05;2.57;;;2.37;;
3329;SDS011;1677;49.576;10.990;2022-12-29T06:37:31;1.83;;;1.47;;
3329;SDS011;1677;49.576;10.990;2022-12-29T06:39:57;2.03;;;1.77;;
3329;SDS011;1677;49.576;10.990;2022-12-29T06:42:23;2.37;;;1.83;;
3329;SDS011;1677;49.576;10.990;2022-12-29T06:44:48;3.93;;;2.10;;
3329;SDS011;1677;49.576;10.990;2022-12-29T06:47:14;3.40;;;2.00;;
3329;SDS011;1677;49.576;10.990;2022-12-29T06:49:40;2.03;;;1.50;;
3329;SDS011;1677;49.576;10.990;2022-12-29T06:52:06;1.93;;;1.70;;
3329;SDS011;1677;49.576;10.990;2022-12-29T06:54:31;6.40;;;2.30;;
3329;SDS011;1677;49.576;10.990;2022-12-29T06:56:57;2.80;;;2.00;;
3329;SDS011;1677;49.576;10.990;2022-12-29T06:59:23;3.87;;;2.30;;
3329;SDS011;1677;49.576;10.990;2022-12-29T07:01:49;2.38;;;2.17;;
3329;SDS011;1677;49.576;10.990;2022-12-29T07:04:14;2.17;;;1.97;;
3329;SDS011;1677;49.576;10.990;2022-12-29T07:06:40;2.00;;;1.90;;
3329;SDS011;1677;49.576;10.990;2022-12-29T07:09:06;7.03;;;1.70;;
3329;SDS011;1677;49.576;10.990;2022-12-29T07:11:32;4.53;;;2.10;;
3329;SDS011;1677;49.576;10.990;2022-12-29T07:13:58;3.60;;;1.90;;
3329;SDS011;1677;49.576;10.990;2022-12-29T07:16:24;2.83;;;2.07;;
3329;SDS011;1677;49.576;10.990;2022-12-29T07:18:50;5.07;;;2.23;;
3329;SDS011;1677;49.576;10.990;2022-12-29T07:21:16;2.10;;;1.65;;
3329;SDS011;1677;49.576;10.990;2022-12-29T07:23:43;4.40;;;2.22;;
3329;SDS011;1677;49.576;10.990;2022-12-29T07:26:09;2.37;;;1.70;;
3329;SDS011;1677;49.576;10.990;2022-12-29T07:28:37;3.47;;;2.30;;
3329;SDS011;1677;49.576;10.990;2022-12-29T07:31:03;5.68;;;1.70;;
3329;SDS011;1677;49.576;10.990;2022-12-29T07:33:30;1.90;;;1.70;;
3329;SDS011;1677;49.576;10.990;2022-12-29T07:35:56;2.60;;;1.95;;
3329;SDS011;1677;49.576;10.990;2022-12-29T07:38:23;9.07;;;2.10;;
3329;SDS011;1677;49.576;10.990;2022-12-29T07:40:48;1.97;;;1.80;;
3329;SDS011;1677;49.576;10.990;2022-12-29T07:43:14;2.00;;;1.80;;
3329;SDS011;1677;49.576;10.990;2022-12-29T07:45:40;2.63;;;1.90;;
3329;SDS011;1677;49.576;10.990;2022-12-29T07:48:05;2.50;;;1.77;;
3329;SDS011;1677;49.576;10.990;2022-12-29T07:50:35;1.95;;;1.70;;
3329;SDS011;1677;49.576;10.990;2022-12-29T07:53:01;3.67;;;2.40;;
3329;SDS011;1677;49.576;10.990;2022-12-29T07:55:27;4.70;;;1.88;;
3329;SDS011;1677;49.576;10.990;2022-12-29T07:57:54;5.33;;;1.87;;
3329;SDS011;1677;49.576;10.990;2022-12-29T08:00:20;3.60;;;1.75;;
3329;SDS011;1677;49.576;10.990;2022-12-29T08:02:46;2.40;;;1.92;;
3329;SDS011;1677;49.576;10.990;2022-12-29T08:05:11;2.70;;;1.50;;
3329;SDS011;1677;49.576;10.990;2022-12-29T08:07:37;2.30;;;1.77;;
3329;SDS011;1677;49.576;10.990;2022-12-29T08:10:03;3.10;;;2.17;;
3329;SDS011;1677;49.576;10.990;2022-12-29T08:12:29;3.55;;;2.05;;
3329;SDS011;1677;49.576;10.990;2022-12-29T08:14:54;2.47;;;1.80;;
3329;SDS011;1677;49.576;10.990;2022-12-29T08:17:20;1.90;;;1.70;;
3329;SDS011;1677;49.576;10.990;2022-12-29T08:19:46;2.63;;;1.80;;
3329;SDS011;1677;49.576;10.990;2022-12-29T08:22:12;1.60;;;1.47;;
3329;SDS011;1677;49.576;10.990;2022-12-29T08:24:39;3.67;;;2.22;;
3329;SDS011;1677;49.576;10.990;2022-12-29T08:27:04;2.83;;;1.80;;
3329;SDS011;1677;49.576;10.990;2022-12-29T08:29:30;3.63;;;1.70;;
3329;SDS011;1677;49.576;10.990;2022-12-29T08:31:55;3.47;;;2.30;;
3329;SDS011;1677;49.576;10.990;2022-12-29T08:34:21;5.20;;;2.30;;
3329;SDS011;1677;49.576;10.990;2022-12-29T08:36:47;2.07;;;1.50;;
3329;SDS011;1677;49.576;10.990;2022-12-29T08:39:12;4.63;;;2.60;;
3329;SDS011;1677;49.576;10.990;2022-12-29T08:41:38;2.78;;;2.33;;
3329;SDS011;1677;49.576;10.990;2022-12-29T08:44:04;3.37;;;2.07;;
3329;SDS011;1677;49.576;10.990;2022-12-29T08:46:30;2.60;;;1.70;;
3329;SDS011;1677;49.576;10.990;2022-12-29T08:48:56;2.13;;;1.80;;
3329;SDS011;1677;49.576;10.990;2022-12-29T08:51:21;5.83;;;2.10;;
3329;SDS011;1677;49.576;10.990;2022-12-29T08:53:47;4.33;;;1.77;;
3329;SDS011;1677;49.576;10.990;2022-12-29T08:56:13;3.13;;;2.03;;
3329;SDS011;1677;49.576;10.990;2022-12-29T08:58:38;2.00;;;1.80;;
3329;SDS011;1677;49.576;10.990;2022-12-29T09:01:04;3.63;;;1.83;;
3329;SDS011;1677;49.576;10.990;2022-12-29T09:03:30;3.67;;;2.37;;
3329;SDS011;1677;49.576;10.990;2022-12-29T09:05:55;2.23;;;1.73;;
3329;SDS011;1677;49.576;10.990;2022-12-29T09:08:21;4.10;;;2.20;;
3329;SDS011;1677;49.576;10.990;2022-12-29T09:10:47;3.80;;;1.83;;
3329;SDS011;1677;49.576;10.990;2022-12-29T09:13:13;2.00;;;1.43;;
3329;SDS011;1677;49.576;10.990;2022-12-29T09:15:40;2.85;;;1.80;;
3329;SDS011;1677;49.576;10.990;2022-12-29T09:18:07;2.13;;;1.93;;
3329;SDS011;1677;49.576;10.990;2022-12-29T09:20:34;2.40;;;2.08;;
3329;SDS011;1677;49.576;10.990;2022-12-29T09:23:00;2.93;;;1.67;;
3329;SDS011;1677;49.576;10.990;2022-12-29T09:25:26;1.85;;;1.60;;
3329;SDS011;1677;49.576;10.990;2022-12-29T09:27:52;2.73;;;1.67;;
3329;SDS011;1677;49.576;10.990;2022-12-29T09:30:19;2.33;;;1.70;;
3329;SDS011;1677;49.576;10.990;2022-12-29T09:32:45;3.55;;;2.17;;
3329;SDS011;1677;49.576;10.990;2022-12-29T09:35:12;2.00;;;1.80;;
3329;SDS011;1677;49.576;10.990;2022-12-29T09:37:38;2.92;;;1.90;;
3329;SDS011;1677;49.576;10.990;2022-12-29T09:40:04;2.03;;;1.40;;
3329;SDS011;1677;49.576;10.990;2022-12-29T09:45:20;4.03;;;1.88;;
3329;SDS011;1677;49.576;10.990;2022-12-29T09:47:58;3.28;;;2.00;;
3329;SDS011;1677;49.576;10.990;2022-12-29T09:50:28;5.90;;;1.80;;
3329;SDS011;1677;49.576;10.990;2022-12-29T09:55:47;3.08;;;1.88;;
3329;SDS011;1677;49.576;10.990;2022-12-29T09:58:18;3.85;;;2.13;;
3329;SDS011;1677;49.576;10.990;2022-12-29T10:03:47;4.20;;;2.05;;
3329;SDS011;1677;49.576;10.990;2022-12-29T10:06:21;1.80;;;1.60;;
3329;SDS011;1677;49.576;10.990;2022-12-29T10:09:02;3.65;;;1.90;;
3329;SDS011;1677;49.576;10.990;2022-12-29T10:12:02;2.00;;;1.73;;
3329;SDS011;1677;49.576;10.990;2022-12-29T10:17:39;1.70;;;1.58;;
3329;SDS011;1677;49.576;10.990;2022-12-29T10:23:03;2.53;;;1.80;;
3329;SDS011;1677;49.576;10.990;2022-12-29T10:25:46;4.78;;;2.20;;
3329;SDS011;1677;49.576;10.990;2022-12-29T10:28:17;1.70;;;1.57;;
3329;SDS011;1677;49.576;10.990;2022-12-29T10:30:46;2.97;;;1.67;;
3329;SDS011;1677;49.576;10.990;2022-12-29T10:33:21;1.83;;;1.70;;
3329;SDS011;1677;49.576;10.990;2022-12-29T10:36:02;1.85;;;1.60;;
3329;SDS011;1677;49.576;10.990;2022-12-29T10:41:30;5.15;;;1.73;;
3329;SDS011;1677;49.576;10.990;2022-12-29T10:44:09;4.25;;;1.92;;
3329;SDS011;1677;49.576;10.990;2022-12-29T10:46:39;3.92;;;1.85;;
3329;SDS011;1677;49.576;10.990;2022-12-29T10:49:06;6.30;;;1.63;;
3329;SDS011;1677;49.576;10.990;2022-12-29T10:51:41;4.28;;;1.50;;
3329;SDS011;1677;49.576;10.990;2022-12-29T10:54:19;1.92;;;1.52;;
3329;SDS011;1677;49.576;10.990;2022-12-29T10:56:54;2.70;;;1.77;;
3329;SDS011;1677;49.576;10.990;2022-12-29T10:59:26;3.42;;;1.63;;
3329;SDS011;1677;49.576;10.990;2022-12-29T11:04:29;2.70;;;1.50;;
3329;SDS011;1677;49.576;10.990;2022-12-29T11:07:03;4.55;;;1.52;;
3329;SDS011;1677;49.576;10.990;2022-12-29T11:09:29;2.97;;;1.75;;
3329;SDS011;1677;49.576;10.990;2022-12-29T11:11:58;2.35;;;1.60;;
3329;SDS011;1677;49.576;10.990;2022-12-29T11:14:28;1.43;;;1.33;;
3329;SDS011;1677;49.576;10.990;2022-12-29T11:16:59;3.35;;;1.40;;
3329;SDS011;1677;49.576;10.990;2022-12-29T11:19:27;3.30;;;1.92;;
3329;SDS011;1677;49.576;10.990;2022-12-29T11:21:56;2.88;;;1.67;;
3329;SDS011;1677;49.576;10.990;2022-12-29T11:24:43;2.92;;;1.63;;
3329;SDS011;1677;49.576;10.990;2022-12-29T11:27:17;2.20;;;1.98;;
3329;SDS011;1677;49.576;10.990;2022-12-29T11:29:45;4.03;;;1.40;;
3329;SDS011;1677;49.576;10.990;2022-12-29T11:34:44;1.70;;;1.60;;
3329;SDS011;1677;49.576;10.990;2022-12-29T11:37:17;1.70;;;1.60;;
3329;SDS011;1677;49.576;10.990;2022-12-29T11:42:23;4.22;;;1.70;;
3329;SDS011;1677;49.576;10.990;2022-12-29T11:44:56;3.03;;;2.47;;
3329;SDS011;1677;49.576;10.990;2022-12-29T11:47:28;1.75;;;1.65;;
3329;SDS011;1677;49.576;10.990;2022-12-29T11:50:00;3.20;;;1.80;;
3329;SDS011;1677;49.576;10.990;2022-12-29T11:52:30;1.88;;;1.55;;
3329;SDS011;1677;49.576;10.990;2022-12-29T11:55:00;2.38;;;1.80;;
3329;SDS011;1677;49.576;10.990;2022-12-29T11:57:28;1.70;;;1.60;;
3329;SDS011;1677;49.576;10.990;2022-12-29T11:59:57;3.57;;;1.80;;
3329;SDS011;1677;49.576;10.990;2022-12-29T12:10:37;2.30;;;1.98;;
3329;SDS011;1677;49.576;10.990;2022-12-29T12:16:09;2.80;;;1.80;;
3329;SDS011;1677;49.576;10.990;2022-12-29T12:18:47;2.05;;;1.77;;
3329;SDS011;1677;49.576;10.990;2022-12-29T12:31:39;3.50;;;1.90;;
3329;SDS011;1677;49.576;10.990;2022-12-29T12:34:14;4.03;;;2.13;;
3329;SDS011;1677;49.576;10.990;2022-12-29T12:42:45;4.97;;;1.80;;
3329;SDS011;1677;49.576;10.990;2022-12-29T12:50:59;2.40;;;1.85;;
3329;SDS011;1677;49.576;10.990;2022-12-29T12:57:02;2.05;;;1.88;;
3329;SDS011;1677;49.576;10.990;2022-12-29T12:59:30;4.97;;;2.47;;
3329;SDS011;1677;49.576;10.990;2022-12-29T13:05:00;3.50;;;2.40;;
3329;SDS011;1677;49.576;10.990;2022-12-29T13:07:50;4.03;;;2.03;;
3329;SDS011;1677;49.576;10.990;2022-12-29T13:10:30;2.00;;;1.77;;
3329;SDS011;1677;49.576;10.990;2022-12-29T13:24:15;4.32;;;2.25;;
3329;SDS011;1677;49.576;10.990;2022-12-29T13:29:36;3.25;;;2.00;;
3329;SDS011;1677;49.576;10.990;2022-12-29T13:38:03;3.10;;;2.30;;
3329;SDS011;1677;49.576;10.990;2022-12-29T13:40:38;3.53;;;2.17;;
3329;SDS011;1677;49.576;10.990;2022-12-29T13:43:09;2.58;;;2.17;;
3329;SDS011;1677;49.576;10.990;2022-12-29T13:45:37;4.72;;;3.17;;
3329;SDS011;1677;49.576;10.990;2022-12-29T13:48:17;2.85;;;2.08;;
3329;SDS011;1677;49.576;10.990;2022-12-29T13:50:50;3.67;;;2.20;;
3329;SDS011;1677;49.576;10.990;2022-12-29T13:58:35;3.08;;;2.22;;
3329;SDS011;1677;49.576;10.990;2022-12-29T14:06:20;2.47;;;1.85;;
3329;SDS011;1677;49.576;10.990;2022-12-29T14:09:03;3.38;;;1.92;;
3329;SDS011;1677;49.576;10.990;2022-12-29T14:11:34;3.93;;;2.80;;
3329;SDS011;1677;49.576;10.990;2022-12-29T14:14:11;3.20;;;2.60;;
3329;SDS011;1677;49.576;10.990;2022-12-29T14:16:45;3.42;;;2.78;;
3329;SDS011;1677;49.576;10.990;2022-12-29T14:21:59;3.22;;;2.55;;
3329;SDS011;1677;49.576;10.990;2022-12-29T14:33:11;4.65;;;3.40;;
3329;SDS011;1677;49.576;10.990;2022-12-29T14:35:36;3.60;;;3.30;;
3329;SDS011;1677;49.576;10.990;2022-12-29T14:38:16;4.57;;;3.80;;
3329;SDS011;1677;49.576;10.990;2022-12-29T14:40:44;4.90;;;3.35;;
3329;SDS011;1677;49.576;10.990;2022-12-29T14:43:12;3.85;;;2.65;;
3329;SDS011;1677;49.576;10.990;2022-12-29T14:45:43;3.97;;;2.63;;
3329;SDS011;1677;49.576;10.990;2022-12-29T14:48:27;4.45;;;2.90;;
3329;SDS011;1677;49.576;10.990;2022-12-29T14:50:58;4.22;;;3.67;;
3329;SDS011;1677;49.576;10.990;2022-12-29T14:53:40;4.40;;;3.13;;
3329;SDS011;1677;49.576;10.990;2022-12-29T14:56:11;3.47;;;2.95;;
3329;SDS011;1677;49.576;10.990;2022-12-29T14:58:52;4.85;;;3.10;;
3329;SDS011;1677;49.576;10.990;2022-12-29T15:03:57;4.28;;;3.83;;
3329;SDS011;1677;49.576;10.990;2022-12-29T15:06:29;6.45;;;4.63;;
3329;SDS011;1677;49.576;10.990;2022-12-29T15:08:59;7.97;;;4.43;;
3329;SDS011;1677;49.576;10.990;2022-12-29T15:14:01;4.70;;;4.30;;
3329;SDS011;1677;49.576;10.990;2022-12-29T15:16:31;4.80;;;3.80;;
3329;SDS011;1677;49.576;10.990;2022-12-29T15:18:58;9.82;;;6.90;;
3329;SDS011;1677;49.576;10.990;2022-12-29T15:21:25;12.35;;;7.07;;
3329;SDS011;1677;49.576;10.990;2022-12-29T15:23:55;10.90;;;5.78;;
3329;SDS011;1677;49.576;10.990;2022-12-29T15:26:21;4.45;;;3.60;;
3329;SDS011;1677;49.576;10.990;2022-12-29T15:28:48;3.67;;;3.35;;
3329;SDS011;1677;49.576;10.990;2022-12-29T15:31:22;3.70;;;2.70;;
3329;SDS011;1677;49.576;10.990;2022-12-29T15:33:50;3.90;;;2.95;;
3329;SDS011;1677;49.576;10.990;2022-12-29T15:36:27;3.08;;;2.50;;
3329;SDS011;1677;49.576;10.990;2022-12-29T15:38:54;3.63;;;2.88;;
3329;SDS011;1677;49.576;10.990;2022-12-29T15:44:28;4.63;;;3.00;;
3329;SDS011;1677;49.576;10.990;2022-12-29T15:46:57;4.15;;;3.00;;
3329;SDS011;1677;49.576;10.990;2022-12-29T15:49:28;3.28;;;2.63;;
3329;SDS011;1677;49.576;10.990;2022-12-29T15:51:54;3.07;;;2.80;;
3329;SDS011;1677;49.576;10.990;2022-12-29T15:54:20;3.33;;;2.83;;
3329;SDS011;1677;49.576;10.990;2022-12-29T15:56:47;3.28;;;2.88;;
3329;SDS011;1677;49.576;10.990;2022-12-29T16:01:54;4.57;;;3.10;;
3329;SDS011;1677;49.576;10.990;2022-12-29T16:04:21;4.68;;;2.97;;
3329;SDS011;1677;49.576;10.990;2022-12-29T16:06:55;3.55;;;2.70;;
3329;SDS011;1677;49.576;10.990;2022-12-29T16:12:00;3.08;;;2.13;;
3329;SDS011;1677;49.576;10.990;2022-12-29T16:14:31;3.83;;;2.65;;
3329;SDS011;1677;49.576;10.990;2022-12-29T16:17:02;4.65;;;2.60;;
3329;SDS011;1677;49.576;10.990;2022-12-29T16:19:32;4.55;;;2.53;;
3329;SDS011;1677;49.576;10.990;2022-12-29T16:22:00;8.43;;;2.53;;
3329;SDS011;1677;49.576;10.990;2022-12-29T16:24:29;4.78;;;2.70;;
3329;SDS011;1677;49.576;10.990;2022-12-29T16:29:41;2.70;;;2.35;;
3329;SDS011;1677;49.576;10.990;2022-12-29T16:35:17;4.22;;;2.78;;
3329;SDS011;1677;49.576;10.990;2022-12-29T16:37:45;4.25;;;3.15;;
3329;SDS011;1677;49.576;10.990;2022-12-29T16:42:47;4.10;;;3.10;;
3329;SDS011;1677;49.576;10.990;2022-12-29T16:50:37;4.45;;;2.78;;
3329;SDS011;1677;49.576;10.990;2022-12-29T16:53:05;3.10;;;2.65;;
3329;SDS011;1677;49.576;10.990;2022-12-29T16:55:45;4.30;;;3.63;;
3329;SDS011;1677;49.576;10.990;2022-12-29T16:58:14;5.57;;;3.58;;
3329;SDS011;1677;49.576;10.990;2022-12-29T17:00:44;6.57;;;3.15;;
3329;SDS011;1677;49.576;10.990;2022-12-29T17:03:11;4.50;;;3.10;;
3329;SDS011;1677;49.576;10.990;2022-12-29T17:05:37;4.63;;;2.40;;
3329;SDS011;1677;49.576;10.990;2022-12-29T17:08:12;3.07;;;2.60;;
3329;SDS011;1677;49.576;10.990;2022-12-29T17:10:47;4.05;;;2.75;;
3329;SDS011;1677;49.576;10.990;2022-12-29T17:13:33;3.22;;;2.60;;
3329;SDS011;1677;49.576;10.990;2022-12-29T17:15:59;2.90;;;2.20;;
3329;SDS011;1677;49.576;10.990;2022-12-29T17:18:25;2.47;;;2.27;;
3329;SDS011;1677;49.576;10.990;2022-12-29T17:20:51;3.70;;;2.67;;
3329;SDS011;1677;49.576;10.990;2022-12-29T17:23:16;4.40;;;2.80;;
3329;SDS011;1677;49.576;10.990;2022-12-29T17:25:42;3.97;;;2.97;;
3329;SDS011;1677;49.576;10.990;2022-12-29T17:28:26;5.10;;;3.20;;
3329;SDS011;1677;49.576;10.990;2022-12-29T17:30:59;2.85;;;2.50;;
3329;SDS011;1677;49.576;10.990;2022-12-29T17:33:26;3.60;;;2.67;;
3329;SDS011;1677;49.576;10.990;2022-12-29T17:35:54;4.25;;;2.38;;
3329;SDS011;1677;49.576;10.990;2022-12-29T17:38:21;2.70;;;2.30;;
3329;SDS011;1677;49.576;10.990;2022-12-29T17:40:54;4.75;;;2.55;;
3329;SDS011;1677;49.576;10.990;2022-12-29T17:43:20;3.63;;;2.60;;
3329;SDS011;1677;49.576;10.990;2022-12-29T17:45:46;4.97;;;3.10;;
3329;SDS011;1677;49.576;10.990;2022-12-29T17:48:16;2.50;;;2.20;;
3329;SDS011;1677;49.576;10.990;2022-12-29T17:50:43;5.55;;;2.25;;
3329;SDS011;1677;49.576;10.990;2022-12-29T17:53:15;2.58;;;1.80;;
3329;SDS011;1677;49.576;10.990;2022-12-29T17:55:45;1.70;;;1.60;;
3329;SDS011;1677;49.576;10.990;2022-12-29T17:58:21;2.30;;;1.87;;
3329;SDS011;1677;49.576;10.990;2022-12-29T18:00:48;2.13;;;1.92;;
3329;SDS011;1677;49.576;10.990;2022-12-29T18:03:15;3.00;;;2.50;;
3329;SDS011;1677;49.576;10.990;2022-12-29T18:05:42;2.65;;;2.40;;